sensor_id;sensor_type;location;lat;lon;timestamp;P1;durP1;ratioP1;P2;durP2;ratioP2
53875;SDS011;39789;53.216;5.624;2022-10-17T00:00:34;7.53;;;4.38;;
53875;SDS011;39789;53.216;5.624;2022-10-17T00:03:00;10.25;;;4.63;;
53875;SDS011;39789;53.216;5.624;2022-10-17T00:05:26;8.07;;;4.13;;
53875;SDS011;39789;53.216;5.624;2022-10-17T00:07:52;9.93;;;4.00;;
53875;SDS011;39789;53.216;5.624;2022-10-17T00:10:21;12.93;;;4.38;;
53875;SDS011;39789;53.216;5.624;2022-10-17T00:16:29;11.05;;;5.13;;
53875;SDS011;39789;53.216;5.624;2022-10-17T00:19:02;10.13;;;4.45;;
53875;SDS011;39789;53.216;5.624;2022-10-17T00:21:29;9.73;;;4.30;;
53875;SDS011;39789;53.216;5.624;2022-10-17T00:23:55;10.07;;;4.40;;
53875;SDS011;39789;53.216;5.624;2022-10-17T00:26:21;9.15;;;4.13;;
53875;SDS011;39789;53.216;5.624;2022-10-17T00:28:47;11.25;;;4.75;;
53875;SDS011;39789;53.216;5.624;2022-10-17T00:31:14;13.70;;;4.93;;
53875;SDS011;39789;53.216;5.624;2022-10-17T00:33:41;9.68;;;4.60;;
53875;SDS011;39789;53.216;5.624;2022-10-17T00:38:34;10.85;;;5.07;;
53875;SDS011;39789;53.216;5.624;2022-10-17T00:41:01;9.82;;;4.90;;
53875;SDS011;39789;53.216;5.624;2022-10-17T00:43:27;11.63;;;5.25;;
53875;SDS011;39789;53.216;5.624;2022-10-17T00:45:54;12.55;;;5.63;;
53875;SDS011;39789;53.216;5.624;2022-10-17T00:48:20;12.32;;;4.53;;
53875;SDS011;39789;53.216;5.624;2022-10-17T00:50:49;8.93;;;4.60;;
53875;SDS011;39789;53.216;5.624;2022-10-17T00:53:15;9.95;;;4.63;;
53875;SDS011;39789;53.216;5.624;2022-10-17T00:55:51;12.23;;;4.50;;
53875;SDS011;39789;53.216;5.624;2022-10-17T00:58:28;8.00;;;4.75;;
53875;SDS011;39789;53.216;5.624;2022-10-17T01:00:53;9.23;;;4.10;;
53875;SDS011;39789;53.216;5.624;2022-10-17T01:03:19;9.55;;;4.45;;
53875;SDS011;39789;53.216;5.624;2022-10-17T01:05:44;9.13;;;4.70;;
53875;SDS011;39789;53.216;5.624;2022-10-17T01:08:12;8.15;;;4.60;;
53875;SDS011;39789;53.216;5.624;2022-10-17T01:13:29;8.20;;;4.85;;
53875;SDS011;39789;53.216;5.624;2022-10-17T01:16:10;10.85;;;4.47;;
53875;SDS011;39789;53.216;5.624;2022-10-17T01:21:42;12.30;;;5.15;;
53875;SDS011;39789;53.216;5.624;2022-10-17T01:29:40;7.25;;;4.80;;
53875;SDS011;39789;53.216;5.624;2022-10-17T01:32:34;12.68;;;5.10;;
53875;SDS011;39789;53.216;5.624;2022-10-17T01:35:15;10.68;;;4.70;;
53875;SDS011;39789;53.216;5.624;2022-10-17T01:46:31;10.40;;;5.40;;
53875;SDS011;39789;53.216;5.624;2022-10-17T01:49:02;10.45;;;5.43;;
53875;SDS011;39789;53.216;5.624;2022-10-17T01:51:46;10.35;;;5.63;;
53875;SDS011;39789;53.216;5.624;2022-10-17T01:54:17;8.90;;;5.75;;
53875;SDS011;39789;53.216;5.624;2022-10-17T01:56:48;10.65;;;5.65;;
53875;SDS011;39789;53.216;5.624;2022-10-17T01:59:21;11.82;;;5.32;;
53875;SDS011;39789;53.216;5.624;2022-10-17T02:01:50;9.32;;;5.78;;
53875;SDS011;39789;53.216;5.624;2022-10-17T02:04:18;10.15;;;5.95;;
53875;SDS011;39789;53.216;5.624;2022-10-17T02:06:44;9.48;;;6.20;;
53875;SDS011;39789;53.216;5.624;2022-10-17T02:09:17;10.35;;;5.97;;
53875;SDS011;39789;53.216;5.624;2022-10-17T02:11:54;9.65;;;5.88;;
53875;SDS011;39789;53.216;5.624;2022-10-17T02:14:40;11.48;;;6.05;;
53875;SDS011;39789;53.216;5.624;2022-10-17T02:17:24;12.63;;;6.60;;
53875;SDS011;39789;53.216;5.624;2022-10-17T02:20:15;10.07;;;7.00;;
53875;SDS011;39789;53.216;5.624;2022-10-17T02:25:22;12.75;;;7.68;;
53875;SDS011;39789;53.216;5.624;2022-10-17T02:31:00;10.23;;;7.70;;
53875;SDS011;39789;53.216;5.624;2022-10-17T02:36:33;13.70;;;7.50;;
53875;SDS011;39789;53.216;5.624;2022-10-17T02:39:03;13.48;;;7.60;;
53875;SDS011;39789;53.216;5.624;2022-10-17T02:41:31;15.48;;;8.70;;
53875;SDS011;39789;53.216;5.624;2022-10-17T02:43:57;14.75;;;9.02;;
53875;SDS011;39789;53.216;5.624;2022-10-17T02:46:23;11.07;;;7.80;;
53875;SDS011;39789;53.216;5.624;2022-10-17T02:48:57;11.80;;;8.60;;
53875;SDS011;39789;53.216;5.624;2022-10-17T02:51:32;13.57;;;8.57;;
53875;SDS011;39789;53.216;5.624;2022-10-17T02:54:12;13.30;;;8.65;;
53875;SDS011;39789;53.216;5.624;2022-10-17T02:59:32;15.70;;;9.18;;
53875;SDS011;39789;53.216;5.624;2022-10-17T03:02:03;14.40;;;9.07;;
53875;SDS011;39789;53.216;5.624;2022-10-17T03:04:30;10.18;;;8.65;;
53875;SDS011;39789;53.216;5.624;2022-10-17T03:06:55;12.63;;;9.13;;
53875;SDS011;39789;53.216;5.624;2022-10-17T03:09:21;13.75;;;9.93;;
53875;SDS011;39789;53.216;5.624;2022-10-17T03:11:46;16.92;;;10.25;;
53875;SDS011;39789;53.216;5.624;2022-10-17T03:14:12;14.15;;;9.95;;
53875;SDS011;39789;53.216;5.624;2022-10-17T03:16:38;12.57;;;10.13;;
53875;SDS011;39789;53.216;5.624;2022-10-17T03:19:03;15.48;;;10.23;;
53875;SDS011;39789;53.216;5.624;2022-10-17T03:21:29;14.73;;;10.40;;
53875;SDS011;39789;53.216;5.624;2022-10-17T03:23:54;14.25;;;11.07;;
53875;SDS011;39789;53.216;5.624;2022-10-17T03:26:20;15.48;;;12.02;;
53875;SDS011;39789;53.216;5.624;2022-10-17T03:28:46;14.65;;;12.05;;
53875;SDS011;39789;53.216;5.624;2022-10-17T03:31:12;19.92;;;12.18;;
53875;SDS011;39789;53.216;5.624;2022-10-17T03:33:40;15.48;;;11.48;;
53875;SDS011;39789;53.216;5.624;2022-10-17T03:36:11;15.38;;;10.95;;
53875;SDS011;39789;53.216;5.624;2022-10-17T03:38:38;13.20;;;11.52;;
53875;SDS011;39789;53.216;5.624;2022-10-17T03:41:20;13.80;;;11.60;;
53875;SDS011;39789;53.216;5.624;2022-10-17T03:43:45;15.93;;;12.10;;
53875;SDS011;39789;53.216;5.624;2022-10-17T03:46:18;13.77;;;11.45;;
53875;SDS011;39789;53.216;5.624;2022-10-17T03:48:44;16.75;;;11.90;;
53875;SDS011;39789;53.216;5.624;2022-10-17T03:51:11;15.73;;;11.55;;
53875;SDS011;39789;53.216;5.624;2022-10-17T03:53:37;14.10;;;11.77;;
53875;SDS011;39789;53.216;5.624;2022-10-17T03:56:13;18.13;;;12.68;;
53875;SDS011;39789;53.216;5.624;2022-10-17T03:58:41;15.77;;;12.43;;
53875;SDS011;39789;53.216;5.624;2022-10-17T04:01:08;17.02;;;14.13;;
53875;SDS011;39789;53.216;5.624;2022-10-17T04:03:35;18.65;;;13.50;;
53875;SDS011;39789;53.216;5.624;2022-10-17T04:06:01;18.73;;;13.18;;
53875;SDS011;39789;53.216;5.624;2022-10-17T04:08:28;17.98;;;12.77;;
53875;SDS011;39789;53.216;5.624;2022-10-17T04:10:58;19.92;;;12.93;;
53875;SDS011;39789;53.216;5.624;2022-10-17T04:13:28;21.90;;;14.23;;
53875;SDS011;39789;53.216;5.624;2022-10-17T04:15:54;17.17;;;12.95;;
53875;SDS011;39789;53.216;5.624;2022-10-17T04:18:25;18.85;;;13.93;;
53875;SDS011;39789;53.216;5.624;2022-10-17T04:20:51;18.55;;;14.27;;
53875;SDS011;39789;53.216;5.624;2022-10-17T04:23:17;20.02;;;14.75;;
53875;SDS011;39789;53.216;5.624;2022-10-17T04:25:43;19.67;;;14.45;;
53875;SDS011;39789;53.216;5.624;2022-10-17T04:28:09;23.30;;;15.00;;
53875;SDS011;39789;53.216;5.624;2022-10-17T04:30:34;21.98;;;16.02;;
53875;SDS011;39789;53.216;5.624;2022-10-17T04:33:00;23.42;;;15.95;;
53875;SDS011;39789;53.216;5.624;2022-10-17T04:35:26;21.30;;;16.52;;
53875;SDS011;39789;53.216;5.624;2022-10-17T04:37:51;23.45;;;18.63;;
53875;SDS011;39789;53.216;5.624;2022-10-17T04:40:17;21.85;;;16.92;;
53875;SDS011;39789;53.216;5.624;2022-10-17T04:42:43;23.33;;;17.75;;
53875;SDS011;39789;53.216;5.624;2022-10-17T04:45:08;22.52;;;17.25;;
53875;SDS011;39789;53.216;5.624;2022-10-17T04:47:34;21.73;;;17.17;;
53875;SDS011;39789;53.216;5.624;2022-10-17T04:50:00;23.60;;;18.25;;
53875;SDS011;39789;53.216;5.624;2022-10-17T04:52:25;25.88;;;18.55;;
53875;SDS011;39789;53.216;5.624;2022-10-17T04:54:51;23.48;;;17.50;;
53875;SDS011;39789;53.216;5.624;2022-10-17T04:57:17;23.83;;;18.75;;
53875;SDS011;39789;53.216;5.624;2022-10-17T04:59:44;25.20;;;18.48;;
53875;SDS011;39789;53.216;5.624;2022-10-17T05:02:09;26.52;;;18.20;;
53875;SDS011;39789;53.216;5.624;2022-10-17T05:04:35;22.90;;;17.75;;
53875;SDS011;39789;53.216;5.624;2022-10-17T05:07:00;24.70;;;17.90;;
53875;SDS011;39789;53.216;5.624;2022-10-17T05:09:26;25.25;;;18.52;;
53875;SDS011;39789;53.216;5.624;2022-10-17T05:11:52;27.65;;;19.35;;
53875;SDS011;39789;53.216;5.624;2022-10-17T05:14:18;24.05;;;18.83;;
53875;SDS011;39789;53.216;5.624;2022-10-17T05:16:43;26.30;;;18.02;;
53875;SDS011;39789;53.216;5.624;2022-10-17T05:19:09;20.63;;;17.42;;
53875;SDS011;39789;53.216;5.624;2022-10-17T05:21:35;28.85;;;20.55;;
53875;SDS011;39789;53.216;5.624;2022-10-17T05:24:04;25.83;;;18.95;;
53875;SDS011;39789;53.216;5.624;2022-10-17T05:26:30;27.73;;;18.92;;
53875;SDS011;39789;53.216;5.624;2022-10-17T05:28:56;24.88;;;18.92;;
53875;SDS011;39789;53.216;5.624;2022-10-17T05:31:24;28.73;;;19.52;;
53875;SDS011;39789;53.216;5.624;2022-10-17T05:33:49;26.40;;;18.98;;
53875;SDS011;39789;53.216;5.624;2022-10-17T05:36:15;25.35;;;18.80;;
53875;SDS011;39789;53.216;5.624;2022-10-17T05:38:41;23.25;;;19.13;;
53875;SDS011;39789;53.216;5.624;2022-10-17T05:41:06;25.17;;;18.65;;
53875;SDS011;39789;53.216;5.624;2022-10-17T05:43:33;23.17;;;18.10;;
53875;SDS011;39789;53.216;5.624;2022-10-17T05:46:05;24.50;;;18.92;;
53875;SDS011;39789;53.216;5.624;2022-10-17T05:48:31;26.02;;;18.33;;
53875;SDS011;39789;53.216;5.624;2022-10-17T05:50:58;24.88;;;17.92;;
53875;SDS011;39789;53.216;5.624;2022-10-17T05:53:25;26.10;;;17.75;;
53875;SDS011;39789;53.216;5.624;2022-10-17T05:55:54;25.73;;;18.00;;
53875;SDS011;39789;53.216;5.624;2022-10-17T05:58:24;34.42;;;21.38;;
53875;SDS011;39789;53.216;5.624;2022-10-17T06:00:50;33.35;;;20.45;;
53875;SDS011;39789;53.216;5.624;2022-10-17T06:03:15;26.60;;;18.58;;
53875;SDS011;39789;53.216;5.624;2022-10-17T06:05:41;22.48;;;16.80;;
53875;SDS011;39789;53.216;5.624;2022-10-17T06:08:06;23.60;;;17.00;;
53875;SDS011;39789;53.216;5.624;2022-10-17T06:10:35;21.30;;;16.23;;
53875;SDS011;39789;53.216;5.624;2022-10-17T06:13:02;23.60;;;16.65;;
53875;SDS011;39789;53.216;5.624;2022-10-17T06:15:27;23.30;;;15.77;;
53875;SDS011;39789;53.216;5.624;2022-10-17T06:17:53;20.30;;;15.93;;
53875;SDS011;39789;53.216;5.624;2022-10-17T06:20:18;20.60;;;16.15;;
53875;SDS011;39789;53.216;5.624;2022-10-17T06:22:44;22.17;;;14.10;;
53875;SDS011;39789;53.216;5.624;2022-10-17T06:25:10;20.38;;;15.82;;
53875;SDS011;39789;53.216;5.624;2022-10-17T06:27:35;22.73;;;15.38;;
53875;SDS011;39789;53.216;5.624;2022-10-17T06:30:01;19.85;;;15.30;;
53875;SDS011;39789;53.216;5.624;2022-10-17T06:32:26;18.88;;;15.35;;
53875;SDS011;39789;53.216;5.624;2022-10-17T06:34:52;21.13;;;15.20;;
53875;SDS011;39789;53.216;5.624;2022-10-17T06:37:18;19.17;;;13.68;;
53875;SDS011;39789;53.216;5.624;2022-10-17T06:39:43;19.08;;;14.98;;
53875;SDS011;39789;53.216;5.624;2022-10-17T06:42:09;19.95;;;14.45;;
53875;SDS011;39789;53.216;5.624;2022-10-17T06:48:15;21.00;;;14.60;;
53875;SDS011;39789;53.216;5.624;2022-10-17T06:50:42;17.38;;;13.32;;
53875;SDS011;39789;53.216;5.624;2022-10-17T06:53:08;16.65;;;14.05;;
53875;SDS011;39789;53.216;5.624;2022-10-17T06:55:33;21.17;;;15.00;;
53875;SDS011;39789;53.216;5.624;2022-10-17T06:57:59;18.13;;;12.90;;
53875;SDS011;39789;53.216;5.624;2022-10-17T07:00:24;16.20;;;12.48;;
53875;SDS011;39789;53.216;5.624;2022-10-17T07:02:51;17.27;;;12.85;;
53875;SDS011;39789;53.216;5.624;2022-10-17T07:05:16;15.95;;;13.13;;
53875;SDS011;39789;53.216;5.624;2022-10-17T07:07:43;17.83;;;12.25;;
53875;SDS011;39789;53.216;5.624;2022-10-17T07:10:09;17.05;;;13.18;;
53875;SDS011;39789;53.216;5.624;2022-10-17T07:12:35;15.82;;;12.70;;
53875;SDS011;39789;53.216;5.624;2022-10-17T07:15:01;15.07;;;12.73;;
53875;SDS011;39789;53.216;5.624;2022-10-17T07:17:32;15.93;;;11.68;;
53875;SDS011;39789;53.216;5.624;2022-10-17T07:19:57;18.02;;;12.55;;
53875;SDS011;39789;53.216;5.624;2022-10-17T07:22:23;16.13;;;11.90;;
53875;SDS011;39789;53.216;5.624;2022-10-17T07:24:49;15.95;;;12.98;;
53875;SDS011;39789;53.216;5.624;2022-10-17T07:27:14;13.90;;;11.23;;
53875;SDS011;39789;53.216;5.624;2022-10-17T07:29:40;13.25;;;11.85;;
53875;SDS011;39789;53.216;5.624;2022-10-17T07:32:05;15.45;;;11.95;;
53875;SDS011;39789;53.216;5.624;2022-10-17T07:34:33;14.10;;;11.05;;
53875;SDS011;39789;53.216;5.624;2022-10-17T07:37:00;13.93;;;10.45;;
53875;SDS011;39789;53.216;5.624;2022-10-17T07:39:25;13.50;;;11.27;;
53875;SDS011;39789;53.216;5.624;2022-10-17T07:41:51;14.88;;;11.32;;
53875;SDS011;39789;53.216;5.624;2022-10-17T07:44:17;16.83;;;11.57;;
53875;SDS011;39789;53.216;5.624;2022-10-17T07:46:42;13.95;;;10.32;;
53875;SDS011;39789;53.216;5.624;2022-10-17T07:49:08;13.98;;;10.88;;
53875;SDS011;39789;53.216;5.624;2022-10-17T07:51:33;13.38;;;10.93;;
53875;SDS011;39789;53.216;5.624;2022-10-17T07:56:51;16.67;;;10.90;;
53875;SDS011;39789;53.216;5.624;2022-10-17T07:59:17;14.90;;;11.00;;
53875;SDS011;39789;53.216;5.624;2022-10-17T08:01:43;12.95;;;10.57;;
53875;SDS011;39789;53.216;5.624;2022-10-17T08:04:08;16.02;;;11.65;;
53875;SDS011;39789;53.216;5.624;2022-10-17T08:06:34;14.15;;;10.48;;
53875;SDS011;39789;53.216;5.624;2022-10-17T08:12:40;14.00;;;10.25;;
53875;SDS011;39789;53.216;5.624;2022-10-17T08:15:07;13.50;;;10.82;;
53875;SDS011;39789;53.216;5.624;2022-10-17T08:17:37;14.60;;;9.98;;
53875;SDS011;39789;53.216;5.624;2022-10-17T08:20:03;15.10;;;10.55;;
53875;SDS011;39789;53.216;5.624;2022-10-17T08:22:30;13.55;;;9.82;;
53875;SDS011;39789;53.216;5.624;2022-10-17T08:24:56;18.27;;;11.05;;
53875;SDS011;39789;53.216;5.624;2022-10-17T08:27:21;14.52;;;10.50;;
53875;SDS011;39789;53.216;5.624;2022-10-17T08:29:52;12.05;;;10.25;;
53875;SDS011;39789;53.216;5.624;2022-10-17T08:32:22;11.85;;;10.50;;
53875;SDS011;39789;53.216;5.624;2022-10-17T08:34:50;15.07;;;11.20;;
53875;SDS011;39789;53.216;5.624;2022-10-17T08:37:16;17.92;;;11.50;;
53875;SDS011;39789;53.216;5.624;2022-10-17T08:39:42;12.40;;;10.30;;
53875;SDS011;39789;53.216;5.624;2022-10-17T08:47:56;14.27;;;10.73;;
53875;SDS011;39789;53.216;5.624;2022-10-17T08:50:31;16.10;;;10.68;;
53875;SDS011;39789;53.216;5.624;2022-10-17T08:53:05;14.77;;;10.77;;
53875;SDS011;39789;53.216;5.624;2022-10-17T08:55:41;19.10;;;11.38;;
53875;SDS011;39789;53.216;5.624;2022-10-17T08:58:14;16.70;;;11.05;;
53875;SDS011;39789;53.216;5.624;2022-10-17T09:07:04;18.23;;;11.15;;
53875;SDS011;39789;53.216;5.624;2022-10-17T09:09:41;14.40;;;11.23;;
53875;SDS011;39789;53.216;5.624;2022-10-17T09:12:21;15.73;;;11.32;;
53875;SDS011;39789;53.216;5.624;2022-10-17T09:17:36;19.92;;;11.23;;
53875;SDS011;39789;53.216;5.624;2022-10-17T09:23:47;16.52;;;11.32;;
53875;SDS011;39789;53.216;5.624;2022-10-17T09:26:18;17.60;;;11.70;;
53875;SDS011;39789;53.216;5.624;2022-10-17T09:28:45;15.30;;;12.32;;
53875;SDS011;39789;53.216;5.624;2022-10-17T09:31:32;16.08;;;11.88;;
53875;SDS011;39789;53.216;5.624;2022-10-17T09:34:06;15.95;;;12.15;;
53875;SDS011;39789;53.216;5.624;2022-10-17T09:36:35;16.77;;;11.98;;
53875;SDS011;39789;53.216;5.624;2022-10-17T09:39:24;17.02;;;12.98;;
53875;SDS011;39789;53.216;5.624;2022-10-17T09:41:54;17.45;;;13.02;;
53875;SDS011;39789;53.216;5.624;2022-10-17T09:44:23;17.40;;;12.18;;
53875;SDS011;39789;53.216;5.624;2022-10-17T09:47:01;18.23;;;13.50;;
53875;SDS011;39789;53.216;5.624;2022-10-17T09:49:45;19.35;;;12.55;;
53875;SDS011;39789;53.216;5.624;2022-10-17T09:52:21;18.88;;;13.45;;
53875;SDS011;39789;53.216;5.624;2022-10-17T09:54:50;19.35;;;13.13;;
53875;SDS011;39789;53.216;5.624;2022-10-17T09:57:18;20.05;;;12.57;;
53875;SDS011;39789;53.216;5.624;2022-10-17T09:59:46;18.25;;;13.35;;
53875;SDS011;39789;53.216;5.624;2022-10-17T10:08:34;20.98;;;14.15;;
53875;SDS011;39789;53.216;5.624;2022-10-17T10:11:13;18.25;;;13.68;;
53875;SDS011;39789;53.216;5.624;2022-10-17T10:13:39;19.65;;;13.60;;
53875;SDS011;39789;53.216;5.624;2022-10-17T10:18:44;23.48;;;13.85;;
53875;SDS011;39789;53.216;5.624;2022-10-17T10:21:14;18.90;;;13.98;;
53875;SDS011;39789;53.216;5.624;2022-10-17T10:23:47;18.17;;;12.98;;
53875;SDS011;39789;53.216;5.624;2022-10-17T10:26:33;18.92;;;13.85;;
53875;SDS011;39789;53.216;5.624;2022-10-17T10:31:48;21.08;;;13.52;;
53875;SDS011;39789;53.216;5.624;2022-10-17T10:34:24;19.92;;;14.77;;
53875;SDS011;39789;53.216;5.624;2022-10-17T10:37:03;19.88;;;13.45;;
53875;SDS011;39789;53.216;5.624;2022-10-17T10:39:32;21.77;;;14.32;;
53875;SDS011;39789;53.216;5.624;2022-10-17T10:42:02;24.40;;;14.85;;
53875;SDS011;39789;53.216;5.624;2022-10-17T10:44:31;22.20;;;14.77;;
53875;SDS011;39789;53.216;5.624;2022-10-17T10:50:43;22.42;;;14.95;;
53875;SDS011;39789;53.216;5.624;2022-10-17T10:55:49;18.45;;;13.52;;
53875;SDS011;39789;53.216;5.624;2022-10-17T10:58:21;19.40;;;13.50;;
53875;SDS011;39789;53.216;5.624;2022-10-17T11:01:06;27.38;;;15.13;;
53875;SDS011;39789;53.216;5.624;2022-10-17T11:04:18;22.17;;;14.43;;
53875;SDS011;39789;53.216;5.624;2022-10-17T11:07:09;24.33;;;14.38;;
53875;SDS011;39789;53.216;5.624;2022-10-17T11:10:04;20.02;;;15.20;;
53875;SDS011;39789;53.216;5.624;2022-10-17T11:12:40;21.73;;;14.10;;
53875;SDS011;39789;53.216;5.624;2022-10-17T11:15:26;23.45;;;14.95;;
53875;SDS011;39789;53.216;5.624;2022-10-17T11:18:07;17.50;;;13.25;;
53875;SDS011;39789;53.216;5.624;2022-10-17T11:20:55;17.67;;;13.13;;
53875;SDS011;39789;53.216;5.624;2022-10-17T11:26:24;19.80;;;13.50;;
53875;SDS011;39789;53.216;5.624;2022-10-17T11:28:52;20.40;;;13.05;;
53875;SDS011;39789;53.216;5.624;2022-10-17T11:31:19;17.45;;;12.20;;
53875;SDS011;39789;53.216;5.624;2022-10-17T11:36:15;15.15;;;10.73;;
53875;SDS011;39789;53.216;5.624;2022-10-17T11:38:47;13.77;;;10.30;;
53875;SDS011;39789;53.216;5.624;2022-10-17T11:41:21;14.18;;;10.55;;
53875;SDS011;39789;53.216;5.624;2022-10-17T11:49:52;15.77;;;9.40;;
53875;SDS011;39789;53.216;5.624;2022-10-17T11:55:05;12.98;;;10.65;;
53875;SDS011;39789;53.216;5.624;2022-10-17T12:12:27;13.30;;;9.90;;
53875;SDS011;39789;53.216;5.624;2022-10-17T12:18:00;17.05;;;9.40;;
53875;SDS011;39789;53.216;5.624;2022-10-17T12:20:31;15.48;;;9.05;;
53875;SDS011;39789;53.216;5.624;2022-10-17T12:23:03;14.25;;;9.45;;
53875;SDS011;39789;53.216;5.624;2022-10-17T12:25:55;14.95;;;10.50;;
53875;SDS011;39789;53.216;5.624;2022-10-17T12:28:39;17.60;;;10.02;;
53875;SDS011;39789;53.216;5.624;2022-10-17T12:33:50;12.55;;;9.05;;
53875;SDS011;39789;53.216;5.624;2022-10-17T12:52:22;13.52;;;8.00;;
53875;SDS011;39789;53.216;5.624;2022-10-17T13:03:24;13.30;;;6.28;;
53875;SDS011;39789;53.216;5.624;2022-10-17T13:05:53;10.68;;;5.90;;
53875;SDS011;39789;53.216;5.624;2022-10-17T13:08:43;9.45;;;5.75;;
53875;SDS011;39789;53.216;5.624;2022-10-17T13:11:11;10.45;;;5.80;;
53875;SDS011;39789;53.216;5.624;2022-10-17T13:13:48;11.77;;;5.50;;
53875;SDS011;39789;53.216;5.624;2022-10-17T13:19:17;11.65;;;5.50;;
53875;SDS011;39789;53.216;5.624;2022-10-17T13:21:54;8.98;;;4.97;;
53875;SDS011;39789;53.216;5.624;2022-10-17T13:26:57;11.32;;;5.35;;
53875;SDS011;39789;53.216;5.624;2022-10-17T13:29:24;14.75;;;5.68;;
53875;SDS011;39789;53.216;5.624;2022-10-17T13:31:53;15.15;;;6.10;;
53875;SDS011;39789;53.216;5.624;2022-10-17T13:34:24;9.85;;;5.30;;
53875;SDS011;39789;53.216;5.624;2022-10-17T13:36:57;12.52;;;5.50;;
53875;SDS011;39789;53.216;5.624;2022-10-17T13:39:35;14.60;;;5.43;;
53875;SDS011;39789;53.216;5.624;2022-10-17T13:42:04;18.55;;;5.68;;
53875;SDS011;39789;53.216;5.624;2022-10-17T13:44:32;8.35;;;5.53;;
53875;SDS011;39789;53.216;5.624;2022-10-17T13:46:59;6.63;;;4.72;;
53875;SDS011;39789;53.216;5.624;2022-10-17T13:51:56;11.40;;;5.47;;
53875;SDS011;39789;53.216;5.624;2022-10-17T13:54:31;12.80;;;5.85;;
53875;SDS011;39789;53.216;5.624;2022-10-17T13:57:00;12.75;;;5.05;;
53875;SDS011;39789;53.216;5.624;2022-10-17T13:59:32;10.98;;;4.93;;
53875;SDS011;39789;53.216;5.624;2022-10-17T14:02:01;8.50;;;4.93;;
53875;SDS011;39789;53.216;5.624;2022-10-17T14:04:27;13.73;;;5.15;;
53875;SDS011;39789;53.216;5.624;2022-10-17T14:06:53;9.90;;;5.00;;
53875;SDS011;39789;53.216;5.624;2022-10-17T14:09:23;10.57;;;4.90;;
53875;SDS011;39789;53.216;5.624;2022-10-17T14:12:02;8.60;;;4.72;;
53875;SDS011;39789;53.216;5.624;2022-10-17T14:14:34;9.05;;;4.35;;
53875;SDS011;39789;53.216;5.624;2022-10-17T14:17:01;9.00;;;4.75;;
